Time;durP1;ratioP1;P1;durP2;ratioP2;P2;SDS_P1;SDS_P2;PMS_P1;PMS_P2;Temp;Humidity;BMP_temperature;BMP_pressure;BME280_temperature;BME280_humidity;BME280_pressure;Samples;Min_cycle;Max_cycle;Signal;HPM_P1;HPM_P2
2020/12/08 00:01:32;;;;;;;14.00;10.43;;;;;;;3.10;82.95;99694.94;5070437;28;20638;-64
2020/12/08 00:03:58;;;;;;;14.40;10.57;;;;;;;3.09;83.06;99691.47;5070226;28;20613;-65
2020/12/08 00:06:24;;;;;;;13.00;10.00;;;;;;;3.09;82.84;99683.56;5071171;28;20200;-66
2020/12/08 00:08:50;;;;;;;14.60;10.27;;;;;;;3.10;82.67;99685.28;5070707;28;20201;-65
2020/12/08 00:11:16;;;;;;;13.20;10.60;;;;;;;3.11;83.23;99683.50;5070684;28;20795;-65
2020/12/08 00:13:44;;;;;;;13.20;11.23;;;;;;;3.11;82.78;99675.59;5070409;28;20564;-65
2020/12/08 00:16:11;;;;;;;13.20;9.93;;;;;;;3.11;83.01;99679.09;5069499;28;20222;-65
2020/12/08 00:18:37;;;;;;;12.03;9.77;;;;;;;3.11;83.53;99678.22;5069198;28;20720;-65
2020/12/08 00:21:04;;;;;;;13.17;10.10;;;;;;;3.11;82.70;99671.19;5057848;28;20701;-65
2020/12/08 00:23:30;;;;;;;12.80;10.30;;;;;;;3.11;83.04;99672.97;5071850;28;20558;-65
2020/12/08 00:25:57;;;;;;;11.87;9.17;;;;;;;3.10;83.51;99673.91;5074804;28;20212;-65
2020/12/08 00:28:23;;;;;;;10.30;8.73;;;;;;;3.10;83.11;99671.25;5074507;28;20661;-65
2020/12/08 00:30:50;;;;;;;11.43;9.50;;;;;;;3.09;83.29;99673.03;5074375;28;20225;-65
2020/12/08 00:33:17;;;;;;;12.37;9.03;;;;;;;3.09;82.63;99669.56;5073393;28;20666;-65
2020/12/08 00:35:43;;;;;;;11.70;9.33;;;;;;;3.09;83.43;99674.81;5074019;28;20633;-65
2020/12/08 00:38:09;;;;;;;13.23;10.27;;;;;;;3.08;83.27;99673.13;5060299;28;20662;-65
2020/12/08 00:40:35;;;;;;;10.97;9.60;;;;;;;3.09;82.83;99669.56;5062918;28;20570;-65
2020/12/08 00:43:01;;;;;;;14.20;9.57;;;;;;;3.07;83.39;99671.41;5073379;28;20581;-65
2020/12/08 00:45:28;;;;;;;10.97;8.93;;;;;;;3.06;83.03;99667.06;5074472;28;20259;-66
2020/12/08 00:47:54;;;;;;;11.80;9.57;;;;;;;3.02;82.68;99668.16;5073501;28;20205;-65
2020/12/08 00:50:21;;;;;;;11.50;8.93;;;;;;;2.99;82.51;99674.41;5073013;28;20664;-64
2020/12/08 00:52:47;;;;;;;11.30;9.53;;;;;;;2.96;82.92;99668.44;5073336;28;20676;-65
2020/12/08 00:55:13;;;;;;;11.33;9.33;;;;;;;2.95;82.41;99672.00;5074128;28;20623;-65
2020/12/08 00:57:39;;;;;;;12.27;9.37;;;;;;;2.94;83.33;99670.28;5071561;28;20616;-65
2020/12/08 01:00:06;;;;;;;10.50;9.23;;;;;;;2.94;82.89;99672.94;5073268;28;20205;-65
2020/12/08 01:02:32;;;;;;;11.47;9.17;;;;;;;2.93;82.56;99666.81;5072739;28;20831;-65
2020/12/08 01:04:58;;;;;;;11.33;9.43;;;;;;;2.92;82.86;99666.88;5068700;28;20212;-66
2020/12/08 01:07:25;;;;;;;14.50;11.43;;;;;;;2.92;83.09;99669.50;5072915;28;20224;-64
2020/12/08 01:09:51;;;;;;;14.43;10.50;;;;;;;2.92;83.40;99674.78;5073588;28;20205;-65
2020/12/08 01:12:17;;;;;;;14.80;10.67;;;;;;;2.92;83.04;99674.78;5073731;28;20669;-65
2020/12/08 01:14:44;;;;;;;12.50;11.07;;;;;;;2.91;82.88;99670.44;5062950;28;20201;-66
2020/12/08 01:17:10;;;;;;;14.77;11.43;;;;;;;2.91;82.97;99668.66;5069895;28;20633;-65
2020/12/08 01:19:36;;;;;;;15.53;11.77;;;;;;;2.91;82.56;99680.97;5073401;28;20209;-65
2020/12/08 01:22:02;;;;;;;13.17;11.60;;;;;;;2.90;82.79;99681.88;5072940;28;20302;-66
2020/12/08 01:24:29;;;;;;;14.07;11.60;;;;;;;2.89;82.89;99688.06;5074021;28;20205;-65
2020/12/08 01:26:57;;;;;;;14.90;11.27;;;;;;;2.88;83.38;99681.09;5073720;28;20591;-65
2020/12/08 01:29:23;;;;;;;14.40;11.57;;;;;;;2.87;83.37;99693.41;5073075;28;20262;-64
2020/12/08 01:31:49;;;;;;;15.33;11.97;;;;;;;2.86;83.37;99682.97;5073505;28;20244;-65
2020/12/08 01:34:15;;;;;;;14.77;11.40;;;;;;;2.88;82.41;99686.34;5072547;28;20201;-65
2020/12/08 01:36:41;;;;;;;14.17;12.30;;;;;;;2.86;82.46;99689.09;5072732;28;20205;-65
2020/12/08 01:39:07;;;;;;;14.03;11.47;;;;;;;2.86;82.65;99677.72;5073415;28;20222;-65
2020/12/08 01:41:34;;;;;;;14.83;11.17;;;;;;;2.85;82.98;99682.13;5058412;28;20233;-64
2020/12/08 01:44:00;;;;;;;15.00;11.80;;;;;;;2.86;83.09;99682.97;5073158;28;20209;-65
2020/12/08 01:46:27;;;;;;;13.57;11.30;;;;;;;2.84;82.96;99675.16;5072775;28;20201;-65
2020/12/08 01:48:54;;;;;;;15.13;11.60;;;;;;;2.85;82.47;99682.13;5072785;28;20215;-65
2020/12/08 01:51:22;;;;;;;14.90;11.90;;;;;;;2.86;83.03;99685.59;5073192;28;20260;-65
2020/12/08 01:53:51;;;;;;;14.33;11.53;;;;;;;2.86;83.25;99681.19;5071105;28;20201;-64
2020/12/08 01:56:18;;;;;;;15.93;11.60;;;;;;;2.85;83.01;99686.53;5072625;28;20201;-65
2020/12/08 01:58:45;;;;;;;14.60;11.40;;;;;;;2.84;83.27;99684.81;5073127;28;20243;-65
2020/12/08 02:01:13;;;;;;;13.80;10.93;;;;;;;2.83;83.11;99683.13;5072669;28;20271;-65
2020/12/08 02:03:39;;;;;;;13.93;11.20;;;;;;;2.79;82.66;99675.38;5073233;28;20296;-65
2020/12/08 02:06:06;;;;;;;13.83;11.13;;;;;;;2.77;82.48;99676.34;5072039;28;20197;-65
2020/12/08 02:08:34;;;;;;;14.80;11.97;;;;;;;2.76;83.28;99674.66;5072594;28;20204;-65
2020/12/08 02:11:01;;;;;;;13.13;10.27;;;;;;;2.74;82.70;99679.13;5072420;28;20256;-65
2020/12/08 02:13:27;;;;;;;15.80;11.83;;;;;;;2.73;82.46;99682.69;5067093;28;20239;-65
2020/12/08 02:15:54;;;;;;;15.53;12.43;;;;;;;2.72;83.23;99679.19;5072774;28;20240;-65
2020/12/08 02:18:21;;;;;;;15.67;11.93;;;;;;;2.72;82.72;99681.81;5072557;28;20216;-65
2020/12/08 02:20:54;;;;;;;12.93;11.07;;;;;;;2.72;83.62;99676.56;5072190;28;20271;-65
2020/12/08 02:23:20;;;;;;;14.43;11.37;;;;;;;2.74;83.23;99689.63;5070664;28;20205;-65
2020/12/08 02:25:53;;;;;;;14.33;11.23;;;;;;;2.76;82.86;99685.16;5072615;28;20205;-65
2020/12/08 02:28:19;;;;;;;15.03;11.90;;;;;;;2.76;82.73;99690.44;5072296;28;20232;-65
2020/12/08 02:30:45;;;;;;;15.03;11.37;;;;;;;2.77;83.29;99692.13;5072769;28;20225;-65
2020/12/08 02:33:12;;;;;;;14.27;11.67;;;;;;;2.79;83.16;99690.28;5071598;28;20201;-65
2020/12/08 02:35:38;;;;;;;14.77;12.00;;;;;;;2.78;83.44;99683.31;5072091;28;20208;-65
2020/12/08 02:38:05;;;;;;;14.73;11.53;;;;;;;2.79;83.35;99682.41;5071606;28;20216;-65
2020/12/08 02:40:31;;;;;;;15.73;11.47;;;;;;;2.81;83.68;99684.97;5072386;28;20221;-65
2020/12/08 02:42:57;;;;;;;14.13;11.17;;;;;;;2.81;82.98;99691.06;5071537;28;20213;-65
2020/12/08 02:45:23;;;;;;;14.43;11.17;;;;;;;2.81;83.76;99693.69;5071734;28;20209;-65
2020/12/08 02:47:50;;;;;;;15.43;12.00;;;;;;;2.82;83.70;99692.78;5070962;28;20687;-65
2020/12/08 02:50:16;;;;;;;15.97;12.17;;;;;;;2.83;83.35;99697.13;5071067;28;20361;-66
2020/12/08 02:52:42;;;;;;;14.77;12.03;;;;;;;2.84;83.08;99690.94;5072139;28;20229;-65
2020/12/08 02:55:09;;;;;;;13.97;11.73;;;;;;;2.84;82.99;99695.34;5070955;28;20212;-65
2020/12/08 02:57:35;;;;;;;16.43;12.00;;;;;;;2.84;82.77;99695.34;5071453;28;20201;-65
2020/12/08 03:00:01;;;;;;;14.73;12.10;;;;;;;2.83;83.80;99694.50;5071890;28;20262;-65
2020/12/08 03:02:27;;;;;;;15.70;11.83;;;;;;;2.83;83.26;99691.84;5071278;28;20224;-65
2020/12/08 03:04:53;;;;;;;16.37;12.87;;;;;;;2.83;83.87;99704.16;5072022;28;20255;-65
2020/12/08 03:07:19;;;;;;;14.27;11.23;;;;;;;2.83;83.87;99705.00;5071298;28;20201;-65
2020/12/08 03:09:46;;;;;;;15.70;10.93;;;;;;;2.82;83.28;99703.31;5071271;28;20204;-65
2020/12/08 03:12:14;;;;;;;14.43;10.80;;;;;;;2.82;82.65;99702.44;5071239;28;20217;-65
2020/12/08 03:14:40;;;;;;;15.07;11.93;;;;;;;2.79;82.79;99698.19;5071432;28;20204;-65
2020/12/08 03:17:06;;;;;;;14.57;11.03;;;;;;;2.79;83.62;99698.19;5071713;28;20229;-65
2020/12/08 03:19:32;;;;;;;16.80;11.60;;;;;;;2.79;82.89;99706.91;5070825;28;20204;-66
2020/12/08 03:21:58;;;;;;;16.13;11.87;;;;;;;2.79;83.67;99706.06;5070448;28;20229;-65
2020/12/08 03:24:24;;;;;;;14.37;11.87;;;;;;;2.80;83.25;99720.91;5070693;28;20259;-65
2020/12/08 03:26:50;;;;;;;12.83;10.40;;;;;;;2.81;83.06;99706.00;5071267;28;20217;-65
2020/12/08 03:29:17;;;;;;;15.57;10.73;;;;;;;2.78;83.56;99705.22;5070788;28;20289;-65
2020/12/08 03:31:44;;;;;;;15.10;11.20;;;;;;;2.76;83.16;99709.69;5070979;28;20263;-66
2020/12/08 03:34:10;;;;;;;16.63;11.87;;;;;;;2.76;82.70;99698.31;5071469;28;20201;-66
2020/12/08 03:36:36;;;;;;;15.03;11.37;;;;;;;2.76;82.68;99695.69;5071551;28;20201;-66
2020/12/08 03:39:03;;;;;;;15.27;11.27;;;;;;;2.75;83.23;99702.72;5071066;28;20205;-66
2020/12/08 03:41:29;;;;;;;15.23;11.40;;;;;;;2.75;83.23;99684.31;5064275;28;20267;-65
2020/12/08 03:43:55;;;;;;;18.97;12.07;;;;;;;2.76;83.54;99686.03;5078743;28;20257;-65
2020/12/08 03:46:24;;;;;;;14.87;11.70;;;;;;;2.76;83.53;99683.41;5076457;28;20205;-65
2020/12/08 03:48:51;;;;;;;13.50;10.90;;;;;;;2.77;82.90;99685.09;5075527;28;20725;-66
2020/12/08 03:51:19;;;;;;;15.00;11.70;;;;;;;2.78;83.32;99683.31;5077343;28;20236;-66
2020/12/08 03:53:45;;;;;;;15.33;11.03;;;;;;;2.78;83.62;99680.69;5070626;28;20209;-66
2020/12/08 03:56:12;;;;;;;14.77;11.20;;;;;;;2.78;83.05;99684.19;5071841;28;20205;-65
2020/12/08 03:58:38;;;;;;;15.03;11.23;;;;;;;2.78;83.40;99689.44;5072583;28;20216;-65
2020/12/08 04:01:05;;;;;;;15.07;10.53;;;;;;;2.77;83.53;99687.72;5075218;28;20315;-65
2020/12/08 04:03:32;;;;;;;14.77;10.93;;;;;;;2.77;83.12;99684.25;5075465;28;20343;-65
2020/12/08 04:06:02;;;;;;;13.87;10.43;;;;;;;2.76;83.03;99683.41;5074892;28;20205;-66
2020/12/08 04:08:28;;;;;;;13.83;10.53;;;;;;;2.74;83.81;99682.59;5074904;28;20205;-67
2020/12/08 04:10:55;;;;;;;14.97;11.37;;;;;;;2.73;83.22;99683.53;5074326;28;20259;-65
2020/12/08 04:13:21;;;;;;;13.10;11.03;;;;;;;2.74;82.86;99684.38;5074894;28;20250;-66
2020/12/08 04:15:47;;;;;;;15.10;11.53;;;;;;;2.73;83.22;99686.16;5074632;28;20236;-66
2020/12/08 04:18:14;;;;;;;14.43;11.03;;;;;;;2.74;82.83;99692.28;5074876;28;20204;-66
2020/12/08 04:20:41;;;;;;;14.33;11.43;;;;;;;2.74;83.27;99692.28;5074901;28;20231;-66
2020/12/08 04:23:10;;;;;;;17.10;11.60;;;;;;;2.73;83.62;99686.16;5073455;28;20232;-66
2020/12/08 04:25:36;;;;;;;15.83;11.30;;;;;;;2.73;83.69;99687.94;5075628;28;20215;-66
2020/12/08 04:28:03;;;;;;;15.37;11.83;;;;;;;2.75;83.67;99694.84;5064815;28;20228;-66
2020/12/08 04:30:29;;;;;;;14.63;11.43;;;;;;;2.76;83.64;99693.06;5075156;28;20282;-66
2020/12/08 04:32:55;;;;;;;13.87;10.30;;;;;;;2.76;82.64;99695.69;5073675;28;20228;-66
2020/12/08 04:35:21;;;;;;;13.17;9.83;;;;;;;2.74;83.60;99695.75;5074759;28;20293;-66
2020/12/08 04:37:48;;;;;;;12.63;10.00;;;;;;;2.73;83.35;99704.56;5074339;28;20296;-65
2020/12/08 04:40:14;;;;;;;13.40;10.23;;;;;;;2.71;83.31;99701.16;5074352;28;20229;-65
2020/12/08 04:42:44;;;;;;;13.43;10.27;;;;;;;2.70;83.66;99699.44;5073796;28;20259;-65
2020/12/08 04:45:11;;;;;;;11.97;9.40;;;;;;;2.68;83.47;99711.84;5054885;28;20212;-65
2020/12/08 04:47:38;;;;;;;12.47;9.53;;;;;;;2.66;82.69;99716.31;5077358;28;20296;-65
2020/12/08 04:50:05;;;;;;;11.10;9.30;;;;;;;2.64;83.44;99722.56;5075027;28;20197;-66
2020/12/08 04:52:31;;;;;;;12.40;9.80;;;;;;;2.60;82.90;99718.34;5074082;28;20274;-65
2020/12/08 04:54:58;;;;;;;12.70;9.97;;;;;;;2.55;82.40;99712.44;5074184;28;20270;-65
2020/12/08 04:57:24;;;;;;;12.37;9.67;;;;;;;2.53;82.62;99719.53;5072675;28;20243;-66
2020/12/08 05:00:01;;;;;;;13.27;10.00;;;;;;;2.50;82.38;99715.31;5078867;28;20283;-65
2020/12/08 05:02:27;;;;;;;14.37;9.70;;;;;;;2.49;82.71;99721.47;5065277;28;20255;-65
2020/12/08 05:04:55;;;;;;;13.13;9.77;;;;;;;2.49;82.57;99720.63;5073126;28;20212;-65
2020/12/08 05:07:26;;;;;;;12.30;9.53;;;;;;;2.47;82.94;99711.94;5067615;28;20212;-66
2020/12/08 05:09:52;;;;;;;12.43;9.23;;;;;;;2.48;82.42;99725.03;5072812;28;20704;-65
2020/12/08 05:12:21;;;;;;;12.03;10.07;;;;;;;2.48;83.06;99725.03;5070805;28;20248;-66
2020/12/08 05:14:47;;;;;;;13.93;9.87;;;;;;;2.48;82.22;99717.13;5074675;28;20236;-65
2020/12/08 05:17:19;;;;;;;13.77;10.57;;;;;;;2.49;82.63;99720.63;5071832;28;20216;-65
2020/12/08 05:19:45;;;;;;;12.83;10.43;;;;;;;2.48;83.11;99713.66;5075810;28;20242;-66
2020/12/08 05:22:12;;;;;;;14.30;10.43;;;;;;;2.47;82.55;99712.81;5072342;28;20263;-66
2020/12/08 05:24:38;;;;;;;13.33;9.63;;;;;;;2.47;82.57;99712.81;5072989;28;20216;-65
2020/12/08 05:27:05;;;;;;;14.53;10.70;;;;;;;2.47;82.29;99710.19;5066641;28;20207;-65
2020/12/08 05:29:34;;;;;;;13.97;10.70;;;;;;;2.47;82.37;99706.69;5068274;28;20292;-65
2020/12/08 05:32:22;;;;;;;15.13;10.30;;;;;;;2.47;82.30;99717.22;5069692;28;20229;-66
2020/12/08 05:34:53;;;;;;;12.40;10.20;;;;;;;2.46;82.63;99715.50;5071569;28;20201;-66
2020/12/08 05:37:20;;;;;;;13.80;10.33;;;;;;;2.45;82.74;99714.66;5063587;28;20288;-66
2020/12/08 05:39:47;;;;;;;13.43;10.43;;;;;;;2.43;83.02;99716.50;5058505;28;20313;-66
2020/12/08 05:42:18;;;;;;;14.87;11.37;;;;;;;2.43;82.13;99721.75;5062551;28;20235;-65
2020/12/08 05:44:48;;;;;;;15.60;11.73;;;;;;;2.41;83.00;99724.44;5064305;28;20208;-65
2020/12/08 05:47:18;;;;;;;14.43;10.50;;;;;;;2.41;82.62;99713.06;5070290;28;20213;-65
2020/12/08 05:49:45;;;;;;;13.70;10.23;;;;;;;2.39;82.36;99714.91;5072549;28;20208;-65
2020/12/08 05:52:11;;;;;;;17.20;11.67;;;;;;;2.39;82.73;99721.03;5079625;22;20229;-66
2020/12/08 05:54:37;;;;;;;16.97;11.40;;;;;;;2.38;82.70;99714.06;5049470;28;20297;-65
2020/12/08 05:57:14;;;;;;;14.83;11.10;;;;;;;2.38;82.97;99711.44;5051439;28;20669;-67
2020/12/08 05:59:40;;;;;;;18.70;10.40;;;;;;;2.38;83.03;99710.56;5048102;28;20259;-66
2020/12/08 06:02:07;;;;;;;15.17;10.70;;;;;;;2.36;82.70;99705.38;5039257;28;20226;-68
2020/12/08 06:04:40;;;;;;;15.60;10.73;;;;;;;2.36;82.82;99701.91;5032389;28;20206;-66
2020/12/08 06:07:06;;;;;;;14.93;11.13;;;;;;;2.36;82.11;99720.28;5024745;28;20265;-66
2020/12/08 06:09:33;;;;;;;15.50;11.37;;;;;;;2.36;83.10;99715.91;5020202;28;20681;-65
2020/12/08 06:12:01;;;;;;;14.20;10.10;;;;;;;2.38;82.40;99713.19;5040848;28;20312;-66
2020/12/08 06:14:34;;;;;;;16.20;11.80;;;;;;;2.38;82.77;99714.06;5017487;28;20203;-66
2020/12/08 06:17:05;;;;;;;17.60;11.53;;;;;;;2.39;82.29;99720.16;5015798;28;20289;-65
2020/12/08 06:19:32;;;;;;;16.73;12.03;;;;;;;2.40;82.41;99724.50;5019022;28;20238;-66
2020/12/08 06:21:59;;;;;;;19.97;11.73;;;;;;;2.41;82.93;99728.84;5016927;28;20230;-65
2020/12/08 06:24:25;;;;;;;16.23;11.50;;;;;;;2.39;82.76;99726.28;5019434;28;20208;-65
2020/12/08 06:26:51;;;;;;;16.70;12.17;;;;;;;2.38;82.40;99724.56;5015856;28;20195;-66
2020/12/08 06:29:19;;;;;;;16.40;11.23;;;;;;;2.39;82.53;99728.06;5021206;28;20206;-71
2020/12/08 06:31:46;;;;;;;17.87;11.63;;;;;;;2.39;82.78;99722.78;5016072;28;20226;-70
2020/12/08 06:34:20;;;;;;;17.50;12.50;;;;;;;2.38;83.20;99726.34;5012192;28;20229;-71
2020/12/08 06:36:47;;;;;;;18.83;12.63;;;;;;;2.39;83.02;99721.03;5011764;28;20212;-70
2020/12/08 06:39:14;;;;;;;18.93;13.27;;;;;;;2.40;83.24;99735.00;5013083;28;20203;-70
2020/12/08 06:41:42;;;;;;;17.03;12.57;;;;;;;2.39;82.73;99726.28;5013867;28;20367;-69
2020/12/08 06:44:13;;;;;;;18.70;12.87;;;;;;;2.40;82.98;99729.75;5010142;28;20738;-70
2020/12/08 06:46:50;;;;;;;21.83;13.63;;;;;;;2.40;82.59;99732.38;5026573;28;20683;-70
2020/12/08 06:49:16;;;;;;;18.97;13.47;;;;;;;2.40;82.88;99722.72;5028189;28;20202;-70
2020/12/08 06:51:42;;;;;;;19.30;13.57;;;;;;;2.41;82.53;99731.47;5051095;28;20234;-70
2020/12/08 06:54:13;;;;;;;20.33;13.17;;;;;;;2.40;82.62;99724.50;5035827;28;20202;-70
2020/12/08 06:56:39;;;;;;;21.97;14.77;;;;;;;2.41;83.44;99732.31;5031548;28;20221;-70
2020/12/08 06:59:05;;;;;;;20.97;13.90;;;;;;;2.42;82.66;99738.44;5026448;28;20202;-70
2020/12/08 07:01:31;;;;;;;20.93;13.03;;;;;;;2.43;83.28;99732.25;5031013;28;20232;-69
2020/12/08 07:03:57;;;;;;;25.57;14.83;;;;;;;2.44;83.54;99723.44;5033240;28;20202;-69
2020/12/08 07:06:25;;;;;;;23.70;14.40;;;;;;;2.43;83.02;99733.09;5022293;28;20206;-69
2020/12/08 07:08:52;;;;;;;20.83;14.50;;;;;;;2.44;82.68;99737.44;5031813;28;20217;-69
2020/12/08 07:11:20;;;;;;;22.70;14.03;;;;;;;2.44;83.13;99741.84;5027817;28;20229;-70
2020/12/08 07:13:56;;;;;;;22.03;14.50;;;;;;;2.43;83.05;99740.13;5027841;28;20217;-70
2020/12/08 07:16:25;;;;;;;21.40;13.60;;;;;;;2.43;82.95;99734.88;5028215;28;20289;-69
2020/12/08 07:18:52;;;;;;;22.13;14.20;;;;;;;2.44;83.36;99740.06;5045452;28;20532;-70
2020/12/08 07:21:19;;;;;;;21.40;13.73;;;;;;;2.46;83.46;99736.53;5056541;28;20296;-69
2020/12/08 07:23:45;;;;;;;21.43;14.07;;;;;;;2.47;83.14;99735.59;5035755;28;20206;-69
2020/12/08 07:26:13;;;;;;;21.00;14.53;;;;;;;2.47;83.72;99746.13;5030776;28;20220;-69
2020/12/08 07:28:40;;;;;;;20.67;13.77;;;;;;;2.48;83.24;99743.41;5031534;28;20680;-70
2020/12/08 07:31:17;;;;;;;20.30;13.70;;;;;;;2.49;83.04;99747.75;5030982;28;20596;-69
2020/12/08 07:33:43;;;;;;;20.90;13.93;;;;;;;2.51;83.27;99755.56;5033130;28;20581;-70
2020/12/08 07:36:20;;;;;;;20.30;13.77;;;;;;;2.52;83.61;99754.63;5034237;28;20286;-69
2020/12/08 07:38:50;;;;;;;21.60;14.17;;;;;;;2.52;83.22;99758.09;5035320;28;20212;-69
2020/12/08 07:41:17;;;;;;;22.37;15.00;;;;;;;2.53;83.50;99751.94;5034297;28;20721;-69
2020/12/08 07:43:43;;;;;;;23.13;14.97;;;;;;;2.52;82.91;99755.47;5034189;28;20708;-70
2020/12/08 07:46:09;;;;;;;21.17;14.93;;;;;;;2.53;83.39;99758.97;5035491;28;20206;-70
2020/12/08 07:48:41;;;;;;;20.07;13.90;;;;;;;2.53;83.63;99759.81;5038384;28;20520;-70
2020/12/08 07:51:07;;;;;;;21.90;13.77;;;;;;;2.53;83.27;99759.81;5036282;28;20241;-69
2020/12/08 07:53:37;;;;;;;19.90;14.03;;;;;;;2.53;83.77;99766.84;5035363;28;20206;-69
2020/12/08 07:56:03;;;;;;;20.00;13.20;;;;;;;2.53;83.23;99766.84;5036789;28;20574;-70
2020/12/08 07:58:29;;;;;;;19.17;12.57;;;;;;;2.52;83.73;99780.91;5036739;28;20206;-69
2020/12/08 08:00:57;;;;;;;19.03;13.50;;;;;;;2.52;83.50;99770.41;5036577;28;20226;-70
2020/12/08 08:03:24;;;;;;;19.57;13.10;;;;;;;2.53;83.70;99780.00;5034186;28;20226;-70
2020/12/08 08:05:52;;;;;;;17.53;12.53;;;;;;;2.52;83.21;99779.13;5034199;28;20217;-70
2020/12/08 08:08:21;;;;;;;21.33;13.53;;;;;;;2.53;83.56;99770.31;5035068;28;20689;-70
2020/12/08 08:10:47;;;;;;;21.37;13.90;;;;;;;2.56;82.93;99779.84;5035254;28;20234;-69
2020/12/08 08:13:13;;;;;;;21.60;14.70;;;;;;;2.58;83.18;99783.28;5033425;28;20213;-69
2020/12/08 08:15:39;;;;;;;24.30;15.83;;;;;;;2.59;83.78;99780.59;5034733;28;20202;-69
2020/12/08 08:18:06;;;;;;;24.73;15.63;;;;;;;2.61;83.77;99776.13;5034101;28;20202;-69
2020/12/08 08:20:32;;;;;;;24.37;15.33;;;;;;;2.64;83.90;99772.50;5034941;28;20209;-70
2020/12/08 08:22:58;;;;;;;20.57;14.80;;;;;;;2.66;83.36;99771.50;5033078;28;20218;-70
2020/12/08 08:25:24;;;;;;;23.00;14.90;;;;;;;2.69;83.49;99771.34;5034958;28;20300;-69
2020/12/08 08:27:50;;;;;;;26.57;16.17;;;;;;;2.70;82.92;99777.47;5022409;28;20230;-69
2020/12/08 08:30:16;;;;;;;24.07;15.80;;;;;;;2.70;83.74;99770.44;5034764;28;20225;-69
2020/12/08 08:32:42;;;;;;;21.77;14.83;;;;;;;2.71;83.76;99774.75;5033653;28;20214;-69
2020/12/08 08:35:09;;;;;;;23.03;14.70;;;;;;;2.73;82.98;99775.56;5033999;28;20234;-69
2020/12/08 08:37:35;;;;;;;26.47;15.17;;;;;;;2.72;82.70;99776.47;5041396;28;20198;-70
2020/12/08 08:40:01;;;;;;;22.17;15.00;;;;;;;2.73;83.64;99778.19;5035648;28;20229;-69
2020/12/08 08:42:27;;;;;;;22.30;14.77;;;;;;;2.74;83.62;99784.28;5048912;28;20231;-70
2020/12/08 08:44:53;;;;;;;22.83;14.90;;;;;;;2.75;83.33;99783.38;5034151;28;20206;-69
2020/12/08 08:47:19;;;;;;;22.70;14.43;;;;;;;2.75;83.15;99775.47;5042385;28;20198;-70
2020/12/08 08:49:45;;;;;;;23.43;15.23;;;;;;;2.76;83.29;99785.09;5043145;28;20213;-69
2020/12/08 08:52:12;;;;;;;22.60;15.53;;;;;;;2.76;83.40;99791.19;5039503;28;20230;-69
2020/12/08 08:54:38;;;;;;;20.53;14.67;;;;;;;2.77;82.98;99782.38;5042487;28;20222;-70
2020/12/08 08:57:04;;;;;;;22.83;15.77;;;;;;;2.78;83.46;99785.88;5036876;28;20202;-70
2020/12/08 08:59:30;;;;;;;23.77;15.53;;;;;;;2.79;83.29;99787.56;5033988;28;20671;-70
2020/12/08 09:01:56;;;;;;;22.93;15.63;;;;;;;2.79;82.54;99795.47;5031290;28;20720;-70
2020/12/08 09:04:23;;;;;;;25.23;16.47;;;;;;;2.81;82.73;99791.00;5030898;28;20297;-70
2020/12/08 09:06:49;;;;;;;27.37;17.10;;;;;;;2.82;83.12;99799.75;5034230;28;20208;-69
2020/12/08 09:09:15;;;;;;;21.43;15.87;;;;;;;2.83;82.53;99796.19;5033548;28;20206;-69
2020/12/08 09:11:41;;;;;;;22.87;15.07;;;;;;;2.82;82.67;99795.34;5032822;28;20598;-70
2020/12/08 09:14:08;;;;;;;24.40;15.70;;;;;;;2.83;83.23;99801.44;5033891;28;20654;-70
2020/12/08 09:16:35;;;;;;;22.70;15.00;;;;;;;2.81;82.55;99798.88;5032423;28;20210;-70
2020/12/08 09:19:01;;;;;;;24.87;15.30;;;;;;;2.81;82.89;99800.66;5034144;28;20210;-70
2020/12/08 09:21:27;;;;;;;21.90;15.77;;;;;;;2.84;82.46;99798.75;5033270;28;20226;-69
2020/12/08 09:23:53;;;;;;;24.77;16.00;;;;;;;2.87;82.80;99793.31;5033733;28;20206;-70
2020/12/08 09:26:20;;;;;;;25.57;16.37;;;;;;;2.91;83.41;99786.16;5045262;28;20198;-70
2020/12/08 09:28:46;;;;;;;23.93;16.10;;;;;;;2.97;82.59;99788.50;5045040;28;20304;-70
2020/12/08 09:31:12;;;;;;;22.33;14.93;;;;;;;3.02;82.51;99791.78;5052962;28;20226;-70
2020/12/08 09:33:38;;;;;;;23.57;15.37;;;;;;;3.07;83.22;99787.16;5046268;28;20214;-70
2020/12/08 09:36:05;;;;;;;23.60;15.20;;;;;;;3.08;82.53;99788.88;5041584;28;20208;-70
2020/12/08 09:38:31;;;;;;;25.83;15.33;;;;;;;3.10;82.73;99790.50;5042974;28;20206;-70
2020/12/08 09:40:57;;;;;;;22.77;15.47;;;;;;;3.14;82.78;99791.22;5052880;28;20725;-70
2020/12/08 09:43:24;;;;;;;24.30;15.70;;;;;;;3.19;82.44;99798.91;5051583;28;20221;-70
2020/12/08 09:45:50;;;;;;;28.57;16.43;;;;;;;3.22;83.27;99797.00;5041201;28;20210;-70
2020/12/08 09:48:16;;;;;;;30.70;16.33;;;;;;;3.29;82.42;99797.53;5033392;28;20244;-66
2020/12/08 09:50:42;;;;;;;24.03;15.40;;;;;;;3.36;82.90;99798.97;5036667;28;20232;-66
2020/12/08 09:53:08;;;;;;;23.80;14.77;;;;;;;3.43;82.97;99795.09;5041898;28;20212;-65
2020/12/08 09:55:34;;;;;;;29.93;16.47;;;;;;;3.52;82.53;99793.81;5027951;28;20659;-66
2020/12/08 09:58:00;;;;;;;23.73;15.60;;;;;;;3.58;82.12;99802.28;5028009;28;20212;-66
2020/12/08 10:00:27;;;;;;;23.93;16.00;;;;;;;3.65;82.62;99794.91;5030630;28;20293;-66
2020/12/08 10:02:53;;;;;;;22.00;15.37;;;;;;;3.71;82.26;99792.00;5032590;28;20218;-66
2020/12/08 10:05:19;;;;;;;24.47;15.87;;;;;;;3.77;81.85;99786.41;5037201;28;20289;-66
2020/12/08 10:07:45;;;;;;;24.13;15.33;;;;;;;3.79;82.37;99788.03;5037639;28;20300;-66
2020/12/08 10:10:11;;;;;;;23.83;15.80;;;;;;;3.82;82.26;99798.44;5035930;28;20216;-66
2020/12/08 10:12:37;;;;;;;24.03;15.57;;;;;;;3.85;82.23;99781.63;5037522;28;20225;-66
2020/12/08 10:15:03;;;;;;;22.93;15.20;;;;;;;3.88;81.76;99794.66;5035747;28;20217;-67
2020/12/08 10:17:30;;;;;;;26.00;14.80;;;;;;;3.93;81.36;99795.28;5028346;28;20209;-67
2020/12/08 10:19:56;;;;;;;21.17;14.50;;;;;;;3.95;82.00;99803.09;5032327;28;20202;-66
2020/12/08 10:22:22;;;;;;;25.57;15.40;;;;;;;3.95;81.04;99801.31;5030970;28;20232;-67
2020/12/08 10:24:48;;;;;;;20.30;14.87;;;;;;;3.97;81.45;99803.88;5041040;28;20208;-66
2020/12/08 10:27:14;;;;;;;22.60;15.50;;;;;;;4.00;80.71;99793.19;5032033;28;20209;-66
2020/12/08 10:29:40;;;;;;;23.57;15.80;;;;;;;4.01;81.01;99789.63;5044010;28;20217;-66
2020/12/08 10:32:07;;;;;;;21.70;15.43;;;;;;;4.01;80.92;99782.56;5036178;28;20214;-67
2020/12/08 10:34:33;;;;;;;25.17;16.23;;;;;;;4.03;81.10;99785.13;5041610;28;20572;-66
2020/12/08 10:37:00;;;;;;;26.73;15.77;;;;;;;4.06;80.77;99779.72;5040327;28;20667;-66
2020/12/08 10:39:26;;;;;;;22.70;15.93;;;;;;;4.09;81.02;99782.19;5032159;28;20210;-66
2020/12/08 10:41:55;;;;;;;23.53;15.43;;;;;;;4.12;80.30;99787.31;5037125;28;20239;-66
2020/12/08 10:44:21;;;;;;;22.30;14.53;;;;;;;4.16;80.85;99784.44;5037669;28;20225;-67
2020/12/08 10:46:49;;;;;;;21.83;15.20;;;;;;;4.15;80.64;99788.00;5038163;28;20209;-66
2020/12/08 10:49:15;;;;;;;19.77;14.33;;;;;;;4.15;80.10;99788.00;5025452;28;20198;-67
2020/12/08 10:51:42;;;;;;;23.07;15.27;;;;;;;4.16;79.98;99787.06;5030198;28;20241;-66
2020/12/08 10:54:08;;;;;;;22.17;14.90;;;;;;;4.16;79.89;99792.34;5030514;28;20202;-66
2020/12/08 10:56:34;;;;;;;21.90;15.37;;;;;;;4.19;79.80;99791.34;5032580;28;20578;-67
2020/12/08 10:59:00;;;;;;;23.30;15.33;;;;;;;4.22;80.09;99790.31;5018116;28;20202;-66
2020/12/08 11:01:27;;;;;;;23.90;16.20;;;;;;;4.25;80.16;99780.47;5023609;28;20229;-66
2020/12/08 11:03:54;;;;;;;21.00;14.80;;;;;;;4.28;80.05;99784.75;5025077;28;20285;-66
2020/12/08 11:06:23;;;;;;;22.93;15.00;;;;;;;4.32;80.04;99781.00;5023353;28;20212;-67
2020/12/08 11:08:50;;;;;;;21.10;15.00;;;;;;;4.34;79.95;99772.09;5027271;28;20203;-66
2020/12/08 11:11:21;;;;;;;23.33;15.40;;;;;;;4.37;79.67;99773.72;5021241;28;20226;-66
2020/12/08 11:13:47;;;;;;;24.07;14.37;;;;;;;4.40;79.32;99771.78;5029151;28;20689;-66
2020/12/08 11:16:13;;;;;;;22.10;15.50;;;;;;;4.45;79.22;99774.19;5031659;28;20228;-66
2020/12/08 11:18:39;;;;;;;24.70;15.63;;;;;;;4.46;79.25;99774.09;5029278;28;20202;-66
2020/12/08 11:21:05;;;;;;;21.70;15.17;;;;;;;4.49;79.42;99762.53;5032871;28;20224;-66
2020/12/08 11:23:31;;;;;;;23.90;16.30;;;;;;;4.52;79.51;99768.50;5030261;28;20232;-67
2020/12/08 11:25:58;;;;;;;21.57;15.10;;;;;;;4.54;78.96;99766.63;5036148;28;20662;-66